createdAt,value
2022-08-03T00:02:39.008Z,25.21
2022-08-03T00:06:04.605Z,25.29
2022-08-03T00:09:07.512Z,25.25
2022-08-03T00:12:11.645Z,25.39
2022-08-03T00:15:16.875Z,25.60
2022-08-03T00:18:20.849Z,25.52
2022-08-03T00:21:25.208Z,25.25
2022-08-03T00:24:28.895Z,25.10
2022-08-03T00:27:32.819Z,24.86
2022-08-03T00:30:39.248Z,24.99
2022-08-03T00:33:59.673Z,25.10
2022-08-03T00:37:07.166Z,25.42
2022-08-03T00:40:16.625Z,25.52
2022-08-03T00:43:20.592Z,25.72
2022-08-03T00:46:24.585Z,25.77
2022-08-03T00:49:28.840Z,25.84
2022-08-03T00:52:33.067Z,25.87
2022-08-03T00:55:40.233Z,25.88
2022-08-03T00:58:46.313Z,26.03
2022-08-03T01:01:49.735Z,26.34
2022-08-03T01:04:54.389Z,26.53
2022-08-03T01:08:11.480Z,26.57
2022-08-03T01:12:00.843Z,26.46
2022-08-03T01:15:10.800Z,26.39
2022-08-03T01:18:29.355Z,26.29
2022-08-03T01:21:41.486Z,26.22
2022-08-03T01:25:07.956Z,26.19
2022-08-03T01:28:14.453Z,25.96
2022-08-03T01:31:27.149Z,25.84
2022-08-03T01:34:35.207Z,25.68
2022-08-03T01:37:48.845Z,25.67
2022-08-03T01:40:55.382Z,25.58
2022-08-03T01:44:29.443Z,25.54
2022-08-03T01:47:25.967Z,25.54
2022-08-03T01:50:32.136Z,25.57
2022-08-03T01:53:37.727Z,25.38
2022-08-03T01:56:43.943Z,25.40
2022-08-03T01:59:50.332Z,25.49
2022-08-03T02:02:56.583Z,25.32
2022-08-03T02:07:00.579Z,25.55
2022-08-03T02:09:28.017Z,25.75
2022-08-03T02:12:33.256Z,25.79
2022-08-03T02:15:41.068Z,25.78
2022-08-03T02:18:46.459Z,25.63
2022-08-03T02:21:56.637Z,25.50
2022-08-03T02:25:05.218Z,25.68
2022-08-03T02:28:19.066Z,25.79
2022-08-03T02:31:27.974Z,25.73
2022-08-03T02:34:35.169Z,25.88
2022-08-03T02:37:45.079Z,26.04
2022-08-03T02:40:57.497Z,26.28
2022-08-03T02:44:07.086Z,26.56
2022-08-03T02:47:13.578Z,26.89
2022-08-03T02:50:18.619Z,27.03
2022-08-03T02:53:24.381Z,27.10
2022-08-03T02:56:29.084Z,27.16
2022-08-03T02:59:33.300Z,27.46
2022-08-03T03:02:38.080Z,27.48
2022-08-03T03:05:53.596Z,27.65
2022-08-03T03:09:05.137Z,27.88
2022-08-03T03:12:10.992Z,28.04
2022-08-03T03:15:14.696Z,28.07
2022-08-03T03:18:22.250Z,28.54
2022-08-03T03:21:28.517Z,28.36
2022-08-03T03:24:32.762Z,28.41
2022-08-03T03:27:36.751Z,28.47
2022-08-03T03:30:41.849Z,28.81
2022-08-03T03:33:46.395Z,29.10
2022-08-03T03:36:50.089Z,28.89
2022-08-03T03:39:56.849Z,28.88
2022-08-03T03:43:00.608Z,29.22
2022-08-03T03:46:06.019Z,29.30
2022-08-03T03:49:09.938Z,29.64
2022-08-03T03:52:14.476Z,29.48
2022-08-03T03:55:19.703Z,29.60
2022-08-03T03:58:24.894Z,29.84
2022-08-03T04:01:29.250Z,29.81
2022-08-03T04:04:52.818Z,29.61
2022-08-03T04:08:26.288Z,29.48
2022-08-03T04:11:38.071Z,29.40
2022-08-03T04:14:43.466Z,29.33
2022-08-03T04:17:48.085Z,29.23
2022-08-03T04:20:53.845Z,28.91
2022-08-03T04:24:02.697Z,28.78
2022-08-03T04:27:09.420Z,28.83
2022-08-03T04:30:15.864Z,28.91
2022-08-03T04:33:21.081Z,29.32
2022-08-03T04:36:31.496Z,29.70
2022-08-03T04:39:37.365Z,30.14
2022-08-03T04:42:42.730Z,30.39
2022-08-03T04:45:52.143Z,30.36
2022-08-03T04:48:56.636Z,30.29
2022-08-03T04:52:00.840Z,29.87
2022-08-03T04:55:04.323Z,29.66
2022-08-03T04:58:08.421Z,29.31
2022-08-03T05:01:12.136Z,29.07
2022-08-03T05:04:15.761Z,29.37
2022-08-03T05:07:24.876Z,29.38
2022-08-03T05:10:29.334Z,29.62
2022-08-03T05:13:33.139Z,29.78
2022-08-03T05:16:36.946Z,29.34
2022-08-03T05:19:40.949Z,28.79
2022-08-03T05:22:45.137Z,28.08
2022-08-03T05:25:50.140Z,27.66
2022-08-03T05:28:54.245Z,27.74
2022-08-03T05:31:57.921Z,27.85
2022-08-03T05:35:57.921Z,27.97
2022-08-03T05:38:28.460Z,28.06
2022-08-03T05:41:37.999Z,28.16
2022-08-03T05:44:42.634Z,27.88
2022-08-03T05:47:47.375Z,27.68
2022-08-03T05:50:50.623Z,27.44
2022-08-03T05:53:54.892Z,27.29
2022-08-03T05:56:59.264Z,27.16
2022-08-03T06:00:08.175Z,26.97
2022-08-03T06:03:15.750Z,27.02
2022-08-03T06:06:19.830Z,26.89
2022-08-03T06:09:23.670Z,26.97
2022-08-03T06:12:50.394Z,27.15
2022-08-03T06:15:53.530Z,27.25
2022-08-03T06:18:57.626Z,27.62
2022-08-03T06:22:00.964Z,27.93
2022-08-03T06:25:11.282Z,27.81
2022-08-03T06:28:51.159Z,27.72
2022-08-03T06:31:40.142Z,27.50
2022-08-03T06:34:44.825Z,27.57
2022-08-03T06:37:51.484Z,27.66
2022-08-03T06:40:55.911Z,27.52
2022-08-03T06:44:03.051Z,27.29
2022-08-03T06:47:09.570Z,27.04
2022-08-03T06:50:16.970Z,26.94
2022-08-03T06:53:23.061Z,26.87
2022-08-03T06:56:26.824Z,26.85
2022-08-03T07:00:10.527Z,26.81
2022-08-03T07:02:58.079Z,26.74
2022-08-03T07:06:03.461Z,26.77
2022-08-03T07:09:07.790Z,27.04
2022-08-03T07:12:12.162Z,27.33
2022-08-03T07:15:20.461Z,27.60
2022-08-03T07:18:41.540Z,27.63
2022-08-03T07:21:46.087Z,27.48
2022-08-03T07:24:50.644Z,27.09
2022-08-03T07:27:54.526Z,26.79
2022-08-03T07:31:00.508Z,26.97
2022-08-03T07:34:04.187Z,27.06
2022-08-03T07:37:08.002Z,26.86
2022-08-03T07:40:12.089Z,26.54
2022-08-03T07:43:16.277Z,26.18
2022-08-03T07:46:20.356Z,25.85
2022-08-03T07:49:24.722Z,25.65
2022-08-03T07:52:46.897Z,25.33
2022-08-03T07:55:50.746Z,25.17
2022-08-03T07:58:55.373Z,25.05
2022-08-03T08:01:59.331Z,25.23
2022-08-03T08:05:05.655Z,25.48
2022-08-03T08:08:09.923Z,26.01
2022-08-03T08:11:16.952Z,26.18
2022-08-03T08:14:20.960Z,25.99
2022-08-03T08:17:25.281Z,25.84
2022-08-03T08:20:32.120Z,25.86
2022-08-03T08:23:42.318Z,25.97
2022-08-03T08:26:48.471Z,26.16
2022-08-03T08:29:55.227Z,26.39
2022-08-03T08:33:01.865Z,26.34
2022-08-03T08:36:05.699Z,26.44
2022-08-03T08:39:09.884Z,26.47
2022-08-03T08:42:13.707Z,26.56
2022-08-03T08:45:19.211Z,26.58
2022-08-03T08:48:26.087Z,26.54
2022-08-03T08:51:59.546Z,26.65
2022-08-03T08:55:06.043Z,26.75
2022-08-03T08:58:14.058Z,26.55
2022-08-03T09:01:26.156Z,26.35
2022-08-03T09:04:32.387Z,25.86
2022-08-03T09:07:36.564Z,25.41
2022-08-03T09:10:40.965Z,25.02
2022-08-03T09:13:44.866Z,24.63
2022-08-03T09:17:10.411Z,24.27
2022-08-03T09:20:23.159Z,24.04
2022-08-03T09:24:01.033Z,23.80
2022-08-03T09:27:12.664Z,23.71
2022-08-03T09:30:33.348Z,23.55
2022-08-03T09:33:48.833Z,23.36
2022-08-03T09:36:55.939Z,23.34
2022-08-03T09:39:59.891Z,23.35
2022-08-03T09:43:03.943Z,23.32
2022-08-03T09:46:08.180Z,23.26
2022-08-03T09:49:13.238Z,23.40
2022-08-03T09:52:37.873Z,23.37
2022-08-03T09:56:35.081Z,23.41
2022-08-03T09:59:30.953Z,23.54
2022-08-03T10:02:34.857Z,23.87
2022-08-03T10:05:45.273Z,23.99
2022-08-03T10:09:06.155Z,23.90
2022-08-03T10:12:14.566Z,24.03
2022-08-03T10:16:24.146Z,23.94
2022-08-03T10:18:42.773Z,23.99
2022-08-03T10:21:54.984Z,23.95
2022-08-03T10:25:13.885Z,23.73
2022-08-03T10:28:20.657Z,23.46
2022-08-03T10:31:25.846Z,23.37
2022-08-03T10:34:36.082Z,23.34
2022-08-03T10:38:00.859Z,23.34
2022-08-03T10:41:06.541Z,23.21
2022-08-03T10:44:20.394Z,23.00
2022-08-03T10:47:24.294Z,23.01
2022-08-03T10:50:28.929Z,22.89
2022-08-03T10:53:38.286Z,22.83
2022-08-03T10:57:01.913Z,22.72
2022-08-03T11:00:26.608Z,22.51
2022-08-03T11:03:30.689Z,22.38
2022-08-03T11:06:37.783Z,22.34
2022-08-03T11:09:55.587Z,22.11
2022-08-03T11:13:13.140Z,22.20
2022-08-03T11:16:22.282Z,22.34
2022-08-03T11:19:57.400Z,22.44
2022-08-03T11:23:02.283Z,22.41
2022-08-03T11:26:13.338Z,22.41
2022-08-03T11:29:32.126Z,22.32
2022-08-03T11:32:39.310Z,22.38
2022-08-03T11:35:58.986Z,22.33
2022-08-03T11:39:16.981Z,22.30
2022-08-03T11:42:27.543Z,22.31
2022-08-03T11:45:34.922Z,22.29
2022-08-03T11:48:39.687Z,22.23
2022-08-03T11:51:43.362Z,22.13
2022-08-03T11:54:47.429Z,22.07
2022-08-03T11:59:17.091Z,21.93
2022-08-03T12:01:26.045Z,21.89
2022-08-03T12:04:30.529Z,21.79
2022-08-03T12:08:03.952Z,21.68
2022-08-03T12:11:00.286Z,21.60
2022-08-03T12:14:50.240Z,21.41
2022-08-03T12:17:38.252Z,21.21
2022-08-03T12:20:42.516Z,21.13
2022-08-03T12:23:46.426Z,20.97
2022-08-03T12:26:58.401Z,20.85
2022-08-03T12:30:05.344Z,20.68
2022-08-03T12:33:21.109Z,20.51
2022-08-03T12:36:24.858Z,20.37
2022-08-03T12:39:31.234Z,20.28
2022-08-03T12:42:38.281Z,20.01
2022-08-03T12:45:42.834Z,19.83
2022-08-03T12:49:06.181Z,19.69
2022-08-03T12:52:10.786Z,19.51
2022-08-03T12:55:23.834Z,19.39
2022-08-03T12:58:36.285Z,19.52
2022-08-03T13:01:54.790Z,19.60
2022-08-03T13:05:01.056Z,19.72
2022-08-03T13:08:04.954Z,19.67
2022-08-03T13:11:22.218Z,19.62
2022-08-03T13:14:25.904Z,19.55
2022-08-03T13:17:30.081Z,19.58
2022-08-03T13:20:34.334Z,19.56
2022-08-03T13:23:38.436Z,19.48
2022-08-03T13:26:42.267Z,19.47
2022-08-03T13:29:46.071Z,19.55
2022-08-03T13:32:50.192Z,19.59
2022-08-03T13:35:53.382Z,19.55
2022-08-03T13:38:57.693Z,19.48
2022-08-03T13:42:00.995Z,19.41
2022-08-03T13:45:05.836Z,19.31
2022-08-03T13:48:09.009Z,19.35
2022-08-03T13:51:22.674Z,19.27
2022-08-03T13:54:30.786Z,19.24
2022-08-03T13:58:04.544Z,19.20
2022-08-03T14:00:58.864Z,19.19
2022-08-03T14:04:02.788Z,19.22
2022-08-03T14:07:06.349Z,19.25
2022-08-03T14:10:10.702Z,19.19
2022-08-03T14:13:17.855Z,19.18
2022-08-03T14:16:22.459Z,19.18
2022-08-03T14:19:25.915Z,19.10
2022-08-03T14:22:31.057Z,19.07
2022-08-03T14:25:44.434Z,19.14
2022-08-03T14:28:54.834Z,19.08
2022-08-03T14:32:10.001Z,19.07
2022-08-03T14:35:16.258Z,19.09
2022-08-03T14:38:19.581Z,19.24
2022-08-03T14:41:23.923Z,19.24
2022-08-03T14:44:27.567Z,19.11
2022-08-03T14:47:31.699Z,19.11
2022-08-03T14:50:41.970Z,19.07
2022-08-03T14:53:47.985Z,19.03
2022-08-03T14:56:51.740Z,18.93
2022-08-03T14:59:57.284Z,19.06
2022-08-03T15:03:01.008Z,19.01
2022-08-03T15:06:04.948Z,19.00
2022-08-03T15:09:23.723Z,18.99
2022-08-03T15:12:28.165Z,18.85
2022-08-03T15:15:31.955Z,18.88
2022-08-03T15:18:35.561Z,18.93
2022-08-03T15:21:46.310Z,18.93
2022-08-03T15:24:51.996Z,18.83
2022-08-03T15:28:03.700Z,18.79
2022-08-03T15:31:08.379Z,18.69
2022-08-03T15:34:12.971Z,18.54
2022-08-03T15:37:16.753Z,18.59
2022-08-03T15:40:20.441Z,18.70
2022-08-03T15:43:24.992Z,18.72
2022-08-03T15:46:31.593Z,18.68
2022-08-03T15:49:35.551Z,18.49
2022-08-03T15:52:39.094Z,18.59
2022-08-03T15:55:43.166Z,18.61
2022-08-03T15:59:11.424Z,18.66
2022-08-03T16:02:11.548Z,18.64
2022-08-03T16:05:14.770Z,18.61
2022-08-03T16:08:19.077Z,18.58
2022-08-03T16:11:22.863Z,18.54
2022-08-03T16:14:32.020Z,18.54
2022-08-03T16:17:40.172Z,18.53
2022-08-03T16:20:45.822Z,18.51
2022-08-03T16:23:49.722Z,18.55
2022-08-03T16:26:53.876Z,18.56
2022-08-03T16:29:57.359Z,18.54
2022-08-03T16:33:01.728Z,18.58
2022-08-03T16:36:06.452Z,18.59
2022-08-03T16:39:10.488Z,18.59
2022-08-03T16:42:14.183Z,18.54
2022-08-03T16:45:18.201Z,18.59
2022-08-03T16:48:21.482Z,18.61
2022-08-03T16:51:25.714Z,18.67
2022-08-03T16:54:44.516Z,18.72
2022-08-03T16:58:00.261Z,18.74
2022-08-03T17:01:20.964Z,18.78
2022-08-03T17:04:27.019Z,18.79
2022-08-03T17:07:30.910Z,18.71
2022-08-03T17:10:34.740Z,18.85
2022-08-03T17:13:39.442Z,18.88
2022-08-03T17:16:52.440Z,18.82
2022-08-03T17:19:59.728Z,18.80
2022-08-03T17:23:34.632Z,18.89
2022-08-03T17:26:44.810Z,18.92
2022-08-03T17:29:50.233Z,18.86
2022-08-03T17:32:57.425Z,18.81
2022-08-03T17:36:01.950Z,18.72
2022-08-03T17:39:07.031Z,18.70
2022-08-03T17:42:31.631Z,18.66
2022-08-03T17:45:42.191Z,18.65
2022-08-03T17:48:56.973Z,18.64
2022-08-03T17:52:24.057Z,18.61
2022-08-03T17:55:57.651Z,18.62
2022-08-03T17:59:00.505Z,18.54
2022-08-03T18:02:48.061Z,18.44
2022-08-03T18:06:11.163Z,18.31
2022-08-03T18:12:55.622Z,18.09
2022-08-03T18:16:07.795Z,18.09
2022-08-03T18:19:14.311Z,18.11
2022-08-03T18:22:21.462Z,18.17
2022-08-03T18:25:42.912Z,18.18
2022-08-03T18:28:54.865Z,18.17
2022-08-03T18:32:03.088Z,18.20
2022-08-03T18:35:13.861Z,18.21
2022-08-03T18:38:19.115Z,18.19
2022-08-03T18:41:32.293Z,18.20
2022-08-03T18:44:54.351Z,18.26
2022-08-03T18:48:26.980Z,18.19
2022-08-03T18:51:34.083Z,18.26
2022-08-03T18:55:09.521Z,18.25
2022-08-03T18:58:18.070Z,18.18
2022-08-03T19:02:00.292Z,18.13
2022-08-03T19:05:10.314Z,17.99
2022-08-03T19:08:20.672Z,17.93
2022-08-03T19:12:11.137Z,17.91
2022-08-03T19:15:15.554Z,17.85
2022-08-03T19:18:22.869Z,17.79
2022-08-03T19:21:29.402Z,17.83
2022-08-03T19:24:37.284Z,17.80
2022-08-03T19:27:43.486Z,17.74
2022-08-03T19:30:53.786Z,17.79
2022-08-03T19:33:59.311Z,17.77
2022-08-03T19:37:03.519Z,17.63
2022-08-03T19:40:10.974Z,17.56
2022-08-03T19:43:53.837Z,17.52
2022-08-03T19:47:10.593Z,17.52
2022-08-03T19:50:22.058Z,17.55
2022-08-03T19:53:35.213Z,17.61
2022-08-03T19:56:47.504Z,17.69
2022-08-03T19:59:53.281Z,17.72
2022-08-03T20:02:58.106Z,17.90
2022-08-03T20:06:02.828Z,17.95
2022-08-03T20:09:07.367Z,18.05
2022-08-03T20:12:11.871Z,18.20
2022-08-03T20:15:18.325Z,18.23
2022-08-03T20:18:39.166Z,18.31
2022-08-03T20:21:48.746Z,18.17
2022-08-03T20:24:55.828Z,18.04
2022-08-03T20:28:13.857Z,17.96
2022-08-03T20:31:18.643Z,17.93
2022-08-03T20:34:22.821Z,17.85
2022-08-03T20:37:26.650Z,17.92
2022-08-03T20:40:34.394Z,17.77
2022-08-03T20:43:38.087Z,17.78
2022-08-03T20:46:56.300Z,17.78
2022-08-03T20:50:07.771Z,17.80
2022-08-03T20:53:12.250Z,17.78
2022-08-03T20:56:16.961Z,17.82
2022-08-03T20:59:21.029Z,17.91
2022-08-03T21:02:29.636Z,17.94
2022-08-03T21:09:07.158Z,17.93
2022-08-03T21:12:17.830Z,17.87
2022-08-03T21:12:57.102Z,18.35
2022-08-03T21:13:13.491Z,17.95
2022-08-03T21:16:03.313Z,17.93
2022-08-03T21:18:54.084Z,17.96
2022-08-03T21:21:59.364Z,17.95
2022-08-03T21:25:06.431Z,17.99
2022-08-03T21:28:09.948Z,17.99
2022-08-03T21:31:22.321Z,17.88
2022-08-03T21:34:31.312Z,17.73
2022-08-03T21:37:35.638Z,17.66
2022-08-03T21:40:41.625Z,17.75
2022-08-03T21:43:45.308Z,17.88
2022-08-03T21:46:54.790Z,17.99
2022-08-03T21:50:06.039Z,18.14
2022-08-03T21:53:13.164Z,18.27
2022-08-03T21:56:20.704Z,18.38
2022-08-03T21:59:25.694Z,18.47
2022-08-03T22:02:32.238Z,18.60
2022-08-03T22:05:44.013Z,18.69
2022-08-03T22:08:49.555Z,18.69
2022-08-03T22:11:55.210Z,18.73
2022-08-03T22:15:01.999Z,18.70
2022-08-03T22:18:06.719Z,18.79
2022-08-03T22:21:12.762Z,18.69
2022-08-03T22:24:23.905Z,18.58
2022-08-03T22:27:32.184Z,18.56
2022-08-03T22:30:36.589Z,18.50
2022-08-03T22:33:40.881Z,18.63
2022-08-03T22:36:44.359Z,18.70
2022-08-03T22:39:48.652Z,18.82
2022-08-03T22:42:53.271Z,18.87
2022-08-03T22:46:09.160Z,18.69
2022-08-03T22:49:16.086Z,18.54
2022-08-03T22:52:21.101Z,18.48
2022-08-03T22:55:25.341Z,18.69
2022-08-03T22:58:28.912Z,18.68
2022-08-03T23:01:41.586Z,18.76
2022-08-03T23:04:46.493Z,18.86
2022-08-03T23:07:52.022Z,18.89
2022-08-03T23:11:01.744Z,19.14
2022-08-03T23:14:12.067Z,19.19
2022-08-03T23:17:16.562Z,19.18
2022-08-03T23:20:21.149Z,19.22
2022-08-03T23:23:43.882Z,19.17
2022-08-03T23:26:49.885Z,19.02
2022-08-03T23:29:54.997Z,18.85
2022-08-03T23:33:02.244Z,18.83
2022-08-03T23:36:27.861Z,18.99
2022-08-03T23:39:36.276Z,19.15
2022-08-03T23:42:43.104Z,19.24
2022-08-03T23:45:49.428Z,19.24
2022-08-03T23:48:56.406Z,19.22
2022-08-03T23:52:03.291Z,19.12
2022-08-03T23:55:21.934Z,19.19
2022-08-03T23:58:56.651Z,19.33
